Time;durP1;ratioP1;P1;durP2;ratioP2;P2;SDS_P1;SDS_P2;PMS_P1;PMS_P2;Temp;Humidity;BMP_temperature;BMP_pressure;BME280_temperature;BME280_humidity;BME280_pressure;Samples;Min_cycle;Max_cycle;Signal;HPM_P1;HPM_P2
2023/04/09 00:01:02;;;;;;;;;;;;;;;;;;5054271;28;845;-69
2023/04/09 00:03:27;;;;;;;;;;;;;;;;;;5053415;28;892;-68
2023/04/09 00:05:53;;;;;;;;;;;;;;;;;;5052569;28;1322;-68
2023/04/09 00:08:19;;;;;;;;;;;;;;;;;;5053559;28;880;-68
2023/04/09 00:10:44;;;;;;;;;;;;;;;;;;5053938;28;1957;-68
2023/04/09 00:13:10;;;;;;;;;;;;;;;;;;5053748;28;974;-69
2023/04/09 00:15:35;;;;;;;;;;;;;;;;;;5035507;28;1429;-69
2023/04/09 00:18:01;;;;;;;;;;;;;;;;;;5052218;28;1434;-69
2023/04/09 00:20:26;;;;;;;;;;;;;;;;;;5052165;28;899;-69
2023/04/09 00:22:51;;;;;;;;;;;;;;;;;;5053871;28;967;-69
2023/04/09 00:25:17;;;;;;;;;;;;;;;;;;5053349;28;852;-68
2023/04/09 00:27:42;;;;;;;;;;;;;;;;;;5053955;28;908;-69
2023/04/09 00:30:08;;;;;;;;;;;;;;;;;;5051996;28;1906;-68
2023/04/09 00:32:33;;;;;;;;;;;;;;;;;;5035448;28;1214;-68
2023/04/09 00:34:59;;;;;;;;;;;;;;;;;;5051586;28;1188;-68
2023/04/09 00:37:24;;;;;;;;;;;;;;;;;;5051383;28;845;-68
2023/04/09 00:39:49;;;;;;;;;;;;;;;;;;5035589;28;762;-68
2023/04/09 00:42:15;;;;;;;;;;;;;;;;;;5034678;28;1377;-68
2023/04/09 00:44:40;;;;;;;;;;;;;;;;;;5051374;28;908;-68
2023/04/09 00:47:06;;;;;;;;;;;;;;;;;;5051555;28;956;-68
2023/04/09 00:49:31;;;;;;;;;;;;;;;;;;5050910;28;1955;-68
2023/04/09 00:51:56;;;;;;;;;;;;;;;;;;5034345;28;1215;-68
2023/04/09 00:54:22;;;;;;;;;;;;;;;;;;5034662;28;1382;-68
2023/04/09 00:56:47;;;;;;;;;;;;;;;;;;5034588;28;1168;-68
2023/04/09 00:59:12;;;;;;;;;;;;;;;;;;5062010;28;1207;-68
2023/04/09 01:01:38;;;;;;;;;;;;;;;;;;5106958;28;1277;-68
2023/04/09 01:04:03;;;;;;;;;;;;;;;;;;5107450;28;812;-68
2023/04/09 01:06:38;;;;;;;;;;;;;;;;;;5108056;28;1154;-68
2023/04/09 01:09:09;;;;;;;;;;;;;;;;;;5092622;28;1902;-68
2023/04/09 01:11:37;;;;;;;;;;;;;;;;;;5092676;28;840;-68
2023/04/09 01:14:18;;;;;;;;;;;;;;;;;;5093016;28;951;-68
2023/04/09 01:16:46;;;;;;;;;;;;;;;;;;5094356;28;1282;-68
2023/04/09 01:19:20;;;;;;;;;;;;;;;;;;5113131;28;857;-68
2023/04/09 01:21:46;;;;;;;;;;;;;;;;;;5094894;28;1168;-68
2023/04/09 01:24:11;;;;;;;;;;;;;;;;;;5113261;28;766;-68
2023/04/09 01:26:36;;;;;;;;;;;;;;;;;;5094702;28;1301;-68
2023/04/09 01:29:03;;;;;;;;;;;;;;;;;;5113604;28;1961;-68
2023/04/09 01:31:31;;;;;;;;;;;;;;;;;;5113558;28;864;-69
2023/04/09 01:33:57;;;;;;;;;;;;;;;;;;5095127;28;1178;-69
2023/04/09 01:36:23;;;;;;;;;;;;;;;;;;5113090;28;813;-67
2023/04/09 01:38:50;;;;;;;;;;;;;;;;;;5095336;28;1318;-68
2023/04/09 01:41:18;;;;;;;;;;;;;;;;;;5113155;28;1014;-67
2023/04/09 01:43:44;;;;;;;;;;;;;;;;;;5112984;28;876;-67
2023/04/09 01:46:09;;;;;;;;;;;;;;;;;;5116892;28;840;-67
2023/04/09 01:48:36;;;;;;;;;;;;;;;;;;5116007;28;852;-67
2023/04/09 01:51:01;;;;;;;;;;;;;;;;;;5098548;28;1917;-67
2023/04/09 01:53:27;;;;;;;;;;;;;;;;;;5098106;28;943;-67
2023/04/09 01:55:53;;;;;;;;;;;;;;;;;;5098216;28;1333;-67
2023/04/09 01:58:19;;;;;;;;;;;;;;;;;;5098235;28;1207;-67
2023/04/09 02:00:46;;;;;;;;;;;;;;;;;;5098330;28;947;-66
2023/04/09 02:03:24;;;;;;;;;;;;;;;;;;5116546;28;824;-66
2023/04/09 02:06:13;;;;;;;;;;;;;;;;;;5098115;28;1251;-67
2023/04/09 02:08:42;;;;;;;;;;;;;;;;;;5085097;28;1326;-67
2023/04/09 02:11:09;;;;;;;;;;;;;;;;;;5097857;28;1906;-66
2023/04/09 02:13:36;;;;;;;;;;;;;;;;;;5115926;28;829;-67
2023/04/09 02:16:02;;;;;;;;;;;;;;;;;;5098009;28;994;-67
2023/04/09 02:18:28;;;;;;;;;;;;;;;;;;5080464;28;1322;-67
2023/04/09 02:20:54;;;;;;;;;;;;;;;;;;5098114;28;1321;-67
2023/04/09 02:23:19;;;;;;;;;;;;;;;;;;5080579;28;1264;-67
2023/04/09 02:25:44;;;;;;;;;;;;;;;;;;5115708;28;892;-67
2023/04/09 02:28:10;;;;;;;;;;;;;;;;;;5081029;28;1302;-66
2023/04/09 02:30:35;;;;;;;;;;;;;;;;;;5097097;28;1910;-67
2023/04/09 02:33:00;;;;;;;;;;;;;;;;;;5115734;28;896;-67
2023/04/09 02:35:26;;;;;;;;;;;;;;;;;;5080101;28;699;-67
2023/04/09 02:37:51;;;;;;;;;;;;;;;;;;5115870;28;773;-67
2023/04/09 02:40:16;;;;;;;;;;;;;;;;;;5097554;28;859;-67
2023/04/09 02:42:41;;;;;;;;;;;;;;;;;;5097294;28;1061;-67
2023/04/09 02:45:07;;;;;;;;;;;;;;;;;;5080796;28;1368;-68
2023/04/09 02:47:32;;;;;;;;;;;;;;;;;;5097327;28;1163;-68
2023/04/09 02:49:58;;;;;;;;;;;;;;;;;;5080649;28;1898;-68
2023/04/09 02:52:24;;;;;;;;;;;;;;;;;;5097107;28;1046;-68
2023/04/09 02:54:50;;;;;;;;;;;;;;;;;;5115972;28;964;-68
2023/04/09 02:57:15;;;;;;;;;;;;;;;;;;5096688;28;839;-68
2023/04/09 02:59:40;;;;;;;;;;;;;;;;;;5080426;28;820;-68
2023/04/09 03:02:05;;;;;;;;;;;;;;;;;;5097555;28;828;-68
2023/04/09 03:04:31;;;;;;;;;;;;;;;;;;5097265;28;858;-68
2023/04/09 03:06:56;;;;;;;;;;;;;;;;;;5097996;28;895;-68
2023/04/09 03:09:21;;;;;;;;;;;;;;;;;;5115369;28;1897;-68
2023/04/09 03:11:47;;;;;;;;;;;;;;;;;;5097357;28;1516;-68
2023/04/09 03:14:12;;;;;;;;;;;;;;;;;;5080783;28;1096;-68
2023/04/09 03:16:37;;;;;;;;;;;;;;;;;;5079616;28;1163;-69
2023/04/09 03:19:03;;;;;;;;;;;;;;;;;;5097304;28;1190;-69
2023/04/09 03:21:28;;;;;;;;;;;;;;;;;;5080332;28;741;-70
2023/04/09 03:23:54;;;;;;;;;;;;;;;;;;5115760;28;912;-69
2023/04/09 03:26:19;;;;;;;;;;;;;;;;;;5080412;28;1351;-69
2023/04/09 03:28:44;;;;;;;;;;;;;;;;;;5080079;28;1394;-69
2023/04/09 03:31:10;;;;;;;;;;;;;;;;;;5097183;28;1973;-69
2023/04/09 03:33:35;;;;;;;;;;;;;;;;;;5097186;28;1195;-69
2023/04/09 03:36:00;;;;;;;;;;;;;;;;;;5097480;28;809;-69
2023/04/09 03:38:25;;;;;;;;;;;;;;;;;;5079471;28;747;-69
2023/04/09 03:40:51;;;;;;;;;;;;;;;;;;5079734;28;1298;-69
2023/04/09 03:43:16;;;;;;;;;;;;;;;;;;5096187;28;1226;-69
2023/04/09 03:45:41;;;;;;;;;;;;;;;;;;5096398;28;848;-69
2023/04/09 03:48:07;;;;;;;;;;;;;;;;;;5114785;28;820;-69
2023/04/09 03:50:36;;;;;;;;;;;;;;;;;;5114061;28;1902;-69
2023/04/09 03:53:02;;;;;;;;;;;;;;;;;;5114224;28;979;-69
2023/04/09 03:55:27;;;;;;;;;;;;;;;;;;5095950;28;944;-69
2023/04/09 03:57:52;;;;;;;;;;;;;;;;;;5096180;28;912;-69
2023/04/09 04:00:18;;;;;;;;;;;;;;;;;;5079254;28;1467;-69
2023/04/09 04:02:43;;;;;;;;;;;;;;;;;;5095759;28;970;-69
2023/04/09 04:05:08;;;;;;;;;;;;;;;;;;5096164;28;1185;-69
2023/04/09 04:07:33;;;;;;;;;;;;;;;;;;5113928;28;887;-69
2023/04/09 04:09:59;;;;;;;;;;;;;;;;;;5114674;28;1904;-69
2023/04/09 04:12:24;;;;;;;;;;;;;;;;;;5078929;28;911;-69
2023/04/09 04:14:49;;;;;;;;;;;;;;;;;;5079027;28;686;-69
2023/04/09 04:17:15;;;;;;;;;;;;;;;;;;5078572;28;1250;-69
2023/04/09 04:19:40;;;;;;;;;;;;;;;;;;5078824;28;1160;-69
2023/04/09 04:22:05;;;;;;;;;;;;;;;;;;5095658;28;1195;-69
2023/04/09 04:24:31;;;;;;;;;;;;;;;;;;5095107;28;687;-69
2023/04/09 04:26:56;;;;;;;;;;;;;;;;;;5096012;28;1222;-69
2023/04/09 04:29:21;;;;;;;;;;;;;;;;;;5095493;28;2041;-69
2023/04/09 04:31:46;;;;;;;;;;;;;;;;;;5078398;28;727;-69
2023/04/09 04:34:11;;;;;;;;;;;;;;;;;;5112701;28;1151;-69
2023/04/09 04:36:37;;;;;;;;;;;;;;;;;;5114307;28;872;-69
2023/04/09 04:39:02;;;;;;;;;;;;;;;;;;5096170;28;1213;-69
2023/04/09 04:41:28;;;;;;;;;;;;;;;;;;5095275;28;1477;-69
2023/04/09 04:43:53;;;;;;;;;;;;;;;;;;5096242;28;876;-69
2023/04/09 04:46:19;;;;;;;;;;;;;;;;;;5096478;28;1306;-69
2023/04/09 04:48:44;;;;;;;;;;;;;;;;;;5096264;28;1480;-69
2023/04/09 04:51:10;;;;;;;;;;;;;;;;;;5114624;28;1969;-69
2023/04/09 04:53:35;;;;;;;;;;;;;;;;;;5095650;28;912;-69
2023/04/09 04:56:00;;;;;;;;;;;;;;;;;;5095323;28;1277;-69
2023/04/09 04:58:25;;;;;;;;;;;;;;;;;;5078462;28;1329;-69
2023/04/09 05:00:51;;;;;;;;;;;;;;;;;;5078282;28;1639;-69
2023/04/09 05:03:16;;;;;;;;;;;;;;;;;;5095110;28;1185;-69
2023/04/09 05:05:45;;;;;;;;;;;;;;;;;;5094917;28;990;-69
2023/04/09 05:08:10;;;;;;;;;;;;;;;;;;5113244;28;904;-69
2023/04/09 05:10:36;;;;;;;;;;;;;;;;;;5094833;28;2057;-69
2023/04/09 05:13:01;;;;;;;;;;;;;;;;;;5113442;28;860;-69
2023/04/09 05:15:26;;;;;;;;;;;;;;;;;;5094515;28;762;-69
2023/04/09 05:17:52;;;;;;;;;;;;;;;;;;5112370;28;1203;-69
2023/04/09 05:20:17;;;;;;;;;;;;;;;;;;5112533;28;793;-69
2023/04/09 05:22:42;;;;;;;;;;;;;;;;;;5093796;28;1290;-69
2023/04/09 05:25:09;;;;;;;;;;;;;;;;;;5113023;28;967;-69
2023/04/09 05:27:34;;;;;;;;;;;;;;;;;;5112744;28;965;-69
2023/04/09 05:30:00;;;;;;;;;;;;;;;;;;5094477;28;1975;-69
2023/04/09 05:32:25;;;;;;;;;;;;;;;;;;5093885;28;841;-69
2023/04/09 05:34:50;;;;;;;;;;;;;;;;;;5112365;28;963;-69
2023/04/09 05:37:15;;;;;;;;;;;;;;;;;;5094479;28;1562;-69
2023/04/09 05:39:41;;;;;;;;;;;;;;;;;;5094156;28;954;-69
2023/04/09 05:42:06;;;;;;;;;;;;;;;;;;5077332;28;1096;-69
2023/04/09 05:44:31;;;;;;;;;;;;;;;;;;5094163;28;1251;-69
2023/04/09 05:46:57;;;;;;;;;;;;;;;;;;5112362;28;816;-69
2023/04/09 05:49:22;;;;;;;;;;;;;;;;;;5094271;28;1886;-69
2023/04/09 05:51:48;;;;;;;;;;;;;;;;;;5094270;28;1310;-69
2023/04/09 05:54:13;;;;;;;;;;;;;;;;;;5113094;28;899;-69
2023/04/09 05:56:39;;;;;;;;;;;;;;;;;;5094125;28;1240;-69
2023/04/09 05:59:04;;;;;;;;;;;;;;;;;;5077597;28;1429;-69
2023/04/09 06:01:29;;;;;;;;;;;;;;;;;;5112829;28;832;-69
2023/04/09 06:03:55;;;;;;;;;;;;;;;;;;5077175;28;1345;-69
2023/04/09 06:06:20;;;;;;;;;;;;;;;;;;5094148;28;1186;-69
2023/04/09 06:08:46;;;;;;;;;;;;;;;;;;5092500;28;1318;-69
2023/04/09 06:11:11;;;;;;;;;;;;;;;;;;5082648;28;1957;-69
2023/04/09 06:13:37;;;;;;;;;;;;;;;;;;5074474;28;1200;-69
2023/04/09 06:16:03;;;;;;;;;;;;;;;;;;5074564;28;1480;-69
2023/04/09 06:18:28;;;;;;;;;;;;;;;;;;5076791;28;1236;-69
2023/04/09 06:21:04;;;;;;;;;;;;;;;;;;5072321;28;785;-69
2023/04/09 06:23:30;;;;;;;;;;;;;;;;;;5054517;28;1235;-69
2023/04/09 06:25:55;;;;;;;;;;;;;;;;;;5072460;28;844;-69
2023/04/09 06:28:21;;;;;;;;;;;;;;;;;;5054827;28;897;-69
2023/04/09 06:30:46;;;;;;;;;;;;;;;;;;5071915;28;1909;-69
2023/04/09 06:33:11;;;;;;;;;;;;;;;;;;5057685;28;861;-69
2023/04/09 06:35:37;;;;;;;;;;;;;;;;;;5075062;28;899;-69
2023/04/09 06:38:02;;;;;;;;;;;;;;;;;;5057721;28;1362;-69
2023/04/09 06:40:27;;;;;;;;;;;;;;;;;;5075397;28;829;-69
2023/04/09 06:42:53;;;;;;;;;;;;;;;;;;5057668;28;908;-69
2023/04/09 06:45:18;;;;;;;;;;;;;;;;;;5057352;28;1456;-69
2023/04/09 06:47:43;;;;;;;;;;;;;;;;;;5056730;28;888;-69
2023/04/09 06:50:09;;;;;;;;;;;;;;;;;;5040578;28;1968;-69
2023/04/09 06:52:34;;;;;;;;;;;;;;;;;;5040696;28;1216;-70
2023/04/09 06:55:00;;;;;;;;;;;;;;;;;;5040483;28;1370;-69
2023/04/09 06:57:26;;;;;;;;;;;;;;;;;;5040352;28;1354;-69
2023/04/09 06:59:51;;;;;;;;;;;;;;;;;;5073560;28;1290;-69
2023/04/09 07:02:16;;;;;;;;;;;;;;;;;;5069680;28;1195;-69
2023/04/09 07:04:41;;;;;;;;;;;;;;;;;;5051776;28;1145;-69
2023/04/09 07:07:07;;;;;;;;;;;;;;;;;;5035775;28;1263;-69
2023/04/09 07:09:32;;;;;;;;;;;;;;;;;;5019383;28;1898;-69
2023/04/09 07:11:58;;;;;;;;;;;;;;;;;;5054986;28;860;-69
2023/04/09 07:14:24;;;;;;;;;;;;;;;;;;5037374;28;1109;-69
2023/04/09 07:16:50;;;;;;;;;;;;;;;;;;5038439;28;1327;-69
2023/04/09 07:19:15;;;;;;;;;;;;;;;;;;5056611;28;955;-69
2023/04/09 07:21:40;;;;;;;;;;;;;;;;;;5074380;28;868;-69
2023/04/09 07:24:06;;;;;;;;;;;;;;;;;;5057009;28;785;-69
2023/04/09 07:26:32;;;;;;;;;;;;;;;;;;5056417;28;904;-69
2023/04/09 07:28:58;;;;;;;;;;;;;;;;;;5056003;28;1227;-69
2023/04/09 07:31:23;;;;;;;;;;;;;;;;;;5074525;28;1914;-69
2023/04/09 07:33:48;;;;;;;;;;;;;;;;;;5039656;28;872;-69
2023/04/09 07:36:14;;;;;;;;;;;;;;;;;;5040033;28;1286;-69
2023/04/09 07:38:40;;;;;;;;;;;;;;;;;;5057170;28;1294;-69
2023/04/09 07:41:05;;;;;;;;;;;;;;;;;;5074388;28;860;-69
2023/04/09 07:43:31;;;;;;;;;;;;;;;;;;5073895;28;885;-69
2023/04/09 07:45:56;;;;;;;;;;;;;;;;;;5074208;28;908;-69
2023/04/09 07:48:21;;;;;;;;;;;;;;;;;;5056839;28;1160;-69
2023/04/09 07:50:47;;;;;;;;;;;;;;;;;;5056566;28;1894;-69
2023/04/09 07:53:12;;;;;;;;;;;;;;;;;;5056414;28;820;-69
2023/04/09 07:55:38;;;;;;;;;;;;;;;;;;5039964;28;1330;-69
2023/04/09 07:58:04;;;;;;;;;;;;;;;;;;5039617;28;1369;-69
2023/04/09 08:00:30;;;;;;;;;;;;;;;;;;5074285;28;842;-69
2023/04/09 08:02:56;;;;;;;;;;;;;;;;;;5074307;28;612;-69
2023/04/09 08:05:21;;;;;;;;;;;;;;;;;;5074554;28;844;-69
2023/04/09 08:07:46;;;;;;;;;;;;;;;;;;5056143;28;1251;-69
2023/04/09 08:10:14;;;;;;;;;;;;;;;;;;5056479;28;1890;-69
2023/04/09 08:12:39;;;;;;;;;;;;;;;;;;5057237;28;868;-69
2023/04/09 08:15:05;;;;;;;;;;;;;;;;;;5039524;28;1326;-69
2023/04/09 08:17:30;;;;;;;;;;;;;;;;;;5071250;28;1077;-69
2023/04/09 08:19:55;;;;;;;;;;;;;;;;;;5073245;28;1050;-69
2023/04/09 08:22:21;;;;;;;;;;;;;;;;;;5074147;28;805;-69
2023/04/09 08:24:50;;;;;;;;;;;;;;;;;;5055324;28;1092;-69
2023/04/09 08:27:16;;;;;;;;;;;;;;;;;;5073194;28;856;-70
2023/04/09 08:29:42;;;;;;;;;;;;;;;;;;5073372;28;1969;-69
2023/04/09 08:32:08;;;;;;;;;;;;;;;;;;5055256;28;1223;-69
2023/04/09 08:34:33;;;;;;;;;;;;;;;;;;5054973;28;1322;-69
2023/04/09 08:36:59;;;;;;;;;;;;;;;;;;5054773;28;1132;-69
2023/04/09 08:39:24;;;;;;;;;;;;;;;;;;5055025;28;1255;-69
2023/04/09 08:41:51;;;;;;;;;;;;;;;;;;5054936;28;1337;-69
2023/04/09 08:44:16;;;;;;;;;;;;;;;;;;5055109;28;1287;-69
2023/04/09 08:46:42;;;;;;;;;;;;;;;;;;5055187;28;892;-69
2023/04/09 08:49:08;;;;;;;;;;;;;;;;;;5055287;28;1420;-69
2023/04/09 08:51:33;;;;;;;;;;;;;;;;;;5073304;28;1893;-69
2023/04/09 08:54:00;;;;;;;;;;;;;;;;;;5072459;28;853;-69
2023/04/09 08:56:25;;;;;;;;;;;;;;;;;;5072693;28;1063;-69
2023/04/09 08:58:51;;;;;;;;;;;;;;;;;;5073259;28;845;-69
2023/04/09 09:01:29;;;;;;;;;;;;;;;;;;5055623;28;856;-69
2023/04/09 09:04:04;;;;;;;;;;;;;;;;;;5038707;28;743;-69
2023/04/09 09:06:34;;;;;;;;;;;;;;;;;;5055302;28;1315;-69
2023/04/09 09:09:09;;;;;;;;;;;;;;;;;;5073294;28;896;-69
2023/04/09 09:11:39;;;;;;;;;;;;;;;;;;5073026;28;1886;-69
2023/04/09 09:14:08;;;;;;;;;;;;;;;;;;5072040;28;1220;-69
2023/04/09 09:16:34;;;;;;;;;;;;;;;;;;5092969;28;820;-68
2023/04/09 09:19:01;;;;;;;;;;;;;;;;;;5074619;28;1220;-68
2023/04/09 09:21:27;;;;;;;;;;;;;;;;;;5091356;28;859;-68
2023/04/09 09:23:52;;;;;;;;;;;;;;;;;;5074137;28;1310;-68
2023/04/09 09:26:23;;;;;;;;;;;;;;;;;;5090124;28;816;-69
2023/04/09 09:28:49;;;;;;;;;;;;;;;;;;5092788;28;824;-68
2023/04/09 09:31:15;;;;;;;;;;;;;;;;;;5073884;28;1971;-69
2023/04/09 09:33:40;;;;;;;;;;;;;;;;;;5074252;28;1494;-68
2023/04/09 09:36:08;;;;;;;;;;;;;;;;;;5073908;28;1166;-69
2023/04/09 09:38:33;;;;;;;;;;;;;;;;;;5074153;28;812;-68
2023/04/09 09:41:15;;;;;;;;;;;;;;;;;;5090933;28;832;-68
2023/04/09 09:43:43;;;;;;;;;;;;;;;;;;5092642;28;808;-68
2023/04/09 09:46:09;;;;;;;;;;;;;;;;;;5092299;28;820;-69
2023/04/09 09:48:35;;;;;;;;;;;;;;;;;;5092417;28;773;-68
2023/04/09 09:51:02;;;;;;;;;;;;;;;;;;5090924;28;1894;-69
2023/04/09 09:53:29;;;;;;;;;;;;;;;;;;5073872;28;1057;-69
2023/04/09 09:55:56;;;;;;;;;;;;;;;;;;5096057;28;997;-69
2023/04/09 09:58:31;;;;;;;;;;;;;;;;;;5075989;28;1223;-68
2023/04/09 10:00:57;;;;;;;;;;;;;;;;;;5073586;28;1334;-68
2023/04/09 10:03:24;;;;;;;;;;;;;;;;;;5073868;28;1362;-68
2023/04/09 10:05:50;;;;;;;;;;;;;;;;;;5075009;28;1298;-68
2023/04/09 10:08:16;;;;;;;;;;;;;;;;;;5095483;28;879;-68
2023/04/09 10:10:41;;;;;;;;;;;;;;;;;;5077274;28;1894;-68
2023/04/09 10:13:18;;;;;;;;;;;;;;;;;;5077819;28;867;-68
2023/04/09 10:15:43;;;;;;;;;;;;;;;;;;5095708;28;876;-68
2023/04/09 10:18:09;;;;;;;;;;;;;;;;;;5094297;28;1171;-68
2023/04/09 10:20:45;;;;;;;;;;;;;;;;;;5094756;28;1010;-68
2023/04/09 10:23:15;;;;;;;;;;;;;;;;;;5077700;28;1250;-68
2023/04/09 10:25:40;;;;;;;;;;;;;;;;;;5095857;28;899;-68
2023/04/09 10:28:14;;;;;;;;;;;;;;;;;;5077056;28;916;-68
2023/04/09 10:30:39;;;;;;;;;;;;;;;;;;5077567;28;1953;-69
2023/04/09 10:33:15;;;;;;;;;;;;;;;;;;5077451;28;1321;-68
2023/04/09 10:35:41;;;;;;;;;;;;;;;;;;5095806;28;891;-68
2023/04/09 10:38:07;;;;;;;;;;;;;;;;;;5095998;28;746;-69
2023/04/09 10:40:33;;;;;;;;;;;;;;;;;;5078130;28;1329;-69
2023/04/09 10:42:59;;;;;;;;;;;;;;;;;;5078097;28;1192;-69
2023/04/09 10:45:38;;;;;;;;;;;;;;;;;;5078150;28;1113;-69
2023/04/09 10:48:03;;;;;;;;;;;;;;;;;;5077979;28;917;-69
2023/04/09 10:50:31;;;;;;;;;;;;;;;;;;5078276;28;1960;-68
2023/04/09 10:52:59;;;;;;;;;;;;;;;;;;5096365;28;828;-68
2023/04/09 10:55:35;;;;;;;;;;;;;;;;;;5077763;28;1349;-68
2023/04/09 10:58:01;;;;;;;;;;;;;;;;;;5096059;28;900;-68
2023/04/09 11:00:30;;;;;;;;;;;;;;;;;;5094334;28;912;-70
2023/04/09 11:02:55;;;;;;;;;;;;;;;;;;5077333;28;865;-69
2023/04/09 11:05:32;;;;;;;;;;;;;;;;;;5094887;28;829;-68
2023/04/09 11:08:10;;;;;;;;;;;;;;;;;;5076738;28;1267;-68
2023/04/09 11:10:40;;;;;;;;;;;;;;;;;;5076183;28;1955;-68
2023/04/09 11:13:05;;;;;;;;;;;;;;;;;;5094647;28;852;-68
2023/04/09 11:15:31;;;;;;;;;;;;;;;;;;5094801;28;1109;-68
2023/04/09 11:17:57;;;;;;;;;;;;;;;;;;5093766;28;1301;-68
2023/04/09 11:20:23;;;;;;;;;;;;;;;;;;5076419;28;1350;-68
2023/04/09 11:22:53;;;;;;;;;;;;;;;;;;5094576;28;872;-68
2023/04/09 11:25:25;;;;;;;;;;;;;;;;;;5094433;28;947;-68
2023/04/09 11:27:51;;;;;;;;;;;;;;;;;;5076307;28;1250;-68
2023/04/09 11:30:17;;;;;;;;;;;;;;;;;;5094187;28;1910;-68
2023/04/09 11:32:42;;;;;;;;;;;;;;;;;;5076320;28;848;-68
2023/04/09 11:35:14;;;;;;;;;;;;;;;;;;5076485;28;1393;-69
2023/04/09 11:37:41;;;;;;;;;;;;;;;;;;5094671;28;930;-68
2023/04/09 11:40:06;;;;;;;;;;;;;;;;;;5093404;28;871;-68
2023/04/09 11:42:32;;;;;;;;;;;;;;;;;;5094607;28;840;-69
2023/04/09 11:44:57;;;;;;;;;;;;;;;;;;5094415;28;907;-69
2023/04/09 11:47:23;;;;;;;;;;;;;;;;;;5076123;28;1306;-69
2023/04/09 11:49:48;;;;;;;;;;;;;;;;;;5094141;28;1961;-69
2023/04/09 11:52:16;;;;;;;;;;;;;;;;;;5076373;28;1397;-69
2023/04/09 11:54:46;;;;;;;;;;;;;;;;;;5093524;28;1074;-69
2023/04/09 11:57:12;;;;;;;;;;;;;;;;;;5094248;28;864;-69
2023/04/09 11:59:38;;;;;;;;;;;;;;;;;;5076044;28;1486;-69
2023/04/09 12:02:05;;;;;;;;;;;;;;;;;;5095244;28;816;-69
2023/04/09 12:04:30;;;;;;;;;;;;;;;;;;5076419;28;780;-69
2023/04/09 12:06:57;;;;;;;;;;;;;;;;;;5094877;28;891;-69
2023/04/09 12:09:22;;;;;;;;;;;;;;;;;;5094539;28;887;-69
2023/04/09 12:11:48;;;;;;;;;;;;;;;;;;5094421;28;1961;-69
2023/04/09 12:14:15;;;;;;;;;;;;;;;;;;5094488;28;774;-69
2023/04/09 12:16:42;;;;;;;;;;;;;;;;;;5076376;28;1584;-69
2023/04/09 12:19:09;;;;;;;;;;;;;;;;;;5094233;28;1180;-69
2023/04/09 12:21:55;;;;;;;;;;;;;;;;;;5093173;28;900;-67
2023/04/09 12:24:22;;;;;;;;;;;;;;;;;;5075681;28;1333;-67
2023/04/09 12:26:48;;;;;;;;;;;;;;;;;;5094484;28;824;-67
2023/04/09 12:29:14;;;;;;;;;;;;;;;;;;5074484;28;1207;-70
2023/04/09 12:31:39;;;;;;;;;;;;;;;;;;5075467;28;1973;-67
2023/04/09 12:34:05;;;;;;;;;;;;;;;;;;5075473;28;1484;-67
2023/04/09 12:36:30;;;;;;;;;;;;;;;;;;5075332;28;1390;-67
2023/04/09 12:38:56;;;;;;;;;;;;;;;;;;5093079;28;915;-67
2023/04/09 12:41:21;;;;;;;;;;;;;;;;;;5092487;28;805;-68
2023/04/09 12:43:47;;;;;;;;;;;;;;;;;;5092207;28;1018;-67
2023/04/09 12:46:13;;;;;;;;;;;;;;;;;;5091657;28;833;-68
2023/04/09 12:48:38;;;;;;;;;;;;;;;;;;5092658;28;821;-68
2023/04/09 12:51:03;;;;;;;;;;;;;;;;;;5092698;28;1909;-68
2023/04/09 12:53:29;;;;;;;;;;;;;;;;;;5075007;28;1447;-68
2023/04/09 12:55:54;;;;;;;;;;;;;;;;;;5074622;28;1367;-68
2023/04/09 12:58:20;;;;;;;;;;;;;;;;;;5074387;28;912;-67
2023/04/09 13:00:45;;;;;;;;;;;;;;;;;;5074082;28;1326;-68
2023/04/09 13:03:10;;;;;;;;;;;;;;;;;;5074598;28;1160;-68
2023/04/09 13:05:36;;;;;;;;;;;;;;;;;;5074309;28;1132;-68
2023/04/09 13:08:02;;;;;;;;;;;;;;;;;;5092921;28;935;-68
2023/04/09 13:10:28;;;;;;;;;;;;;;;;;;5092660;28;1938;-68
2023/04/09 13:12:53;;;;;;;;;;;;;;;;;;5090927;28;824;-68
2023/04/09 13:15:18;;;;;;;;;;;;;;;;;;5092382;28;880;-68
2023/04/09 13:17:44;;;;;;;;;;;;;;;;;;5073976;28;1243;-69
2023/04/09 13:20:09;;;;;;;;;;;;;;;;;;5091351;28;805;-68
2023/04/09 13:22:35;;;;;;;;;;;;;;;;;;5092236;28;820;-68
2023/04/09 13:25:00;;;;;;;;;;;;;;;;;;5074152;28;1258;-68
2023/04/09 13:27:26;;;;;;;;;;;;;;;;;;5091115;28;942;-68
2023/04/09 13:29:51;;;;;;;;;;;;;;;;;;5092564;28;1927;-68
2023/04/09 13:32:17;;;;;;;;;;;;;;;;;;5073961;28;1227;-68
2023/04/09 13:34:42;;;;;;;;;;;;;;;;;;5092522;28;856;-68
2023/04/09 13:37:08;;;;;;;;;;;;;;;;;;5092829;28;860;-68
2023/04/09 13:39:33;;;;;;;;;;;;;;;;;;5091116;28;840;-69
2023/04/09 13:41:59;;;;;;;;;;;;;;;;;;5074396;28;1262;-68
2023/04/09 13:44:25;;;;;;;;;;;;;;;;;;5093052;28;777;-68
2023/04/09 13:46:50;;;;;;;;;;;;;;;;;;5074404;28;1192;-68
2023/04/09 13:49:16;;;;;;;;;;;;;;;;;;5074277;28;1227;-69
2023/04/09 13:51:42;;;;;;;;;;;;;;;;;;5091461;28;1902;-69
2023/04/09 13:54:10;;;;;;;;;;;;;;;;;;5074923;28;1239;-69
2023/04/09 13:56:37;;;;;;;;;;;;;;;;;;5074101;28;1073;-69
2023/04/09 13:59:03;;;;;;;;;;;;;;;;;;5074832;28;1097;-69
2023/04/09 14:01:28;;;;;;;;;;;;;;;;;;5091002;28;832;-69
2023/04/09 14:03:54;;;;;;;;;;;;;;;;;;5074408;28;1109;-69
2023/04/09 14:06:19;;;;;;;;;;;;;;;;;;5073894;28;1357;-69
2023/04/09 14:08:45;;;;;;;;;;;;;;;;;;5074003;28;1369;-69
2023/04/09 14:11:13;;;;;;;;;;;;;;;;;;5092807;28;1905;-69
2023/04/09 14:13:39;;;;;;;;;;;;;;;;;;5074302;28;1208;-68
2023/04/09 14:16:04;;;;;;;;;;;;;;;;;;5091039;28;915;-69
2023/04/09 14:18:30;;;;;;;;;;;;;;;;;;5073254;28;1343;-69
2023/04/09 14:20:55;;;;;;;;;;;;;;;;;;5074083;28;1255;-69
2023/04/09 14:23:20;;;;;;;;;;;;;;;;;;5073211;28;1278;-69
2023/04/09 14:25:46;;;;;;;;;;;;;;;;;;5090796;28;855;-69
2023/04/09 14:28:11;;;;;;;;;;;;;;;;;;5091047;28;824;-69
2023/04/09 14:30:36;;;;;;;;;;;;;;;;;;5072915;28;1921;-69
2023/04/09 14:33:02;;;;;;;;;;;;;;;;;;5091116;28;844;-68
2023/04/09 14:35:27;;;;;;;;;;;;;;;;;;5091819;28;875;-67
2023/04/09 14:37:52;;;;;;;;;;;;;;;;;;5073338;28;1231;-68
2023/04/09 14:40:18;;;;;;;;;;;;;;;;;;5091976;28;777;-68
2023/04/09 14:42:44;;;;;;;;;;;;;;;;;;5073101;28;1622;-68
2023/04/09 14:45:10;;;;;;;;;;;;;;;;;;5073645;28;710;-68
2023/04/09 14:47:35;;;;;;;;;;;;;;;;;;5090521;28;836;-68
2023/04/09 14:50:00;;;;;;;;;;;;;;;;;;5073596;28;1957;-68
2023/04/09 14:52:29;;;;;;;;;;;;;;;;;;5091638;28;916;-68
2023/04/09 14:54:54;;;;;;;;;;;;;;;;;;5076770;28;1350;-68
2023/04/09 14:57:19;;;;;;;;;;;;;;;;;;5076910;28;1338;-68
2023/04/09 14:59:45;;;;;;;;;;;;;;;;;;5094716;28;903;-68
2023/04/09 15:02:10;;;;;;;;;;;;;;;;;;5095429;28;890;-68
2023/04/09 15:04:35;;;;;;;;;;;;;;;;;;5093516;28;931;-68
2023/04/09 15:07:01;;;;;;;;;;;;;;;;;;5094977;28;943;-67
2023/04/09 15:09:26;;;;;;;;;;;;;;;;;;5076911;28;1402;-67
2023/04/09 15:11:52;;;;;;;;;;;;;;;;;;5095174;28;1907;-67
2023/04/09 15:14:19;;;;;;;;;;;;;;;;;;5094080;28;835;-67
2023/04/09 15:16:44;;;;;;;;;;;;;;;;;;5076632;28;1346;-67
2023/04/09 15:19:10;;;;;;;;;;;;;;;;;;5077067;28;1365;-67
2023/04/09 15:21:35;;;;;;;;;;;;;;;;;;5076538;28;730;-67
2023/04/09 15:24:01;;;;;;;;;;;;;;;;;;5076997;28;1215;-67
2023/04/09 15:26:26;;;;;;;;;;;;;;;;;;5094958;28;785;-67
2023/04/09 15:29:00;;;;;;;;;;;;;;;;;;5076264;28;1116;-67
2023/04/09 15:31:25;;;;;;;;;;;;;;;;;;5076264;28;1972;-67
2023/04/09 15:33:53;;;;;;;;;;;;;;;;;;5075900;28;1171;-67
2023/04/09 15:36:19;;;;;;;;;;;;;;;;;;5094409;28;840;-67
2023/04/09 15:38:44;;;;;;;;;;;;;;;;;;5076174;28;919;-67
2023/04/09 15:41:10;;;;;;;;;;;;;;;;;;5093725;28;777;-67
2023/04/09 15:43:35;;;;;;;;;;;;;;;;;;5076048;28;1178;-67
2023/04/09 15:46:10;;;;;;;;;;;;;;;;;;5076495;28;1330;-67
2023/04/09 15:48:35;;;;;;;;;;;;;;;;;;5094610;28;860;-67
2023/04/09 15:51:01;;;;;;;;;;;;;;;;;;5076458;28;1990;-68
2023/04/09 15:53:27;;;;;;;;;;;;;;;;;;5094534;28;817;-68
2023/04/09 15:55:53;;;;;;;;;;;;;;;;;;5076256;28;1075;-67
2023/04/09 15:58:18;;;;;;;;;;;;;;;;;;5093107;28;840;-68
2023/04/09 16:00:44;;;;;;;;;;;;;;;;;;5075756;28;1473;-67
2023/04/09 16:03:09;;;;;;;;;;;;;;;;;;5094148;28;903;-67
2023/04/09 16:05:34;;;;;;;;;;;;;;;;;;5093745;28;962;-67
2023/04/09 16:07:59;;;;;;;;;;;;;;;;;;5075628;28;1164;-67
2023/04/09 16:10:25;;;;;;;;;;;;;;;;;;5094157;28;1901;-68
2023/04/09 16:12:50;;;;;;;;;;;;;;;;;;5075041;28;726;-67
2023/04/09 16:15:16;;;;;;;;;;;;;;;;;;5075202;28;1164;-67
2023/04/09 16:17:41;;;;;;;;;;;;;;;;;;5074950;28;1429;-67
2023/04/09 16:20:07;;;;;;;;;;;;;;;;;;5094221;28;867;-67
2023/04/09 16:22:32;;;;;;;;;;;;;;;;;;5075115;28;888;-67
2023/04/09 16:24:57;;;;;;;;;;;;;;;;;;5091895;28;860;-67
2023/04/09 16:27:23;;;;;;;;;;;;;;;;;;5083603;28;1327;-68
2023/04/09 16:29:48;;;;;;;;;;;;;;;;;;5092821;28;1917;-67
2023/04/09 16:32:13;;;;;;;;;;;;;;;;;;5093876;28;1497;-67
2023/04/09 16:34:39;;;;;;;;;;;;;;;;;;5095185;28;1330;-67
2023/04/09 16:37:04;;;;;;;;;;;;;;;;;;5078958;28;1254;-67
2023/04/09 16:39:30;;;;;;;;;;;;;;;;;;5095532;28;1327;-67
2023/04/09 16:41:57;;;;;;;;;;;;;;;;;;5113569;28;844;-67
2023/04/09 16:44:22;;;;;;;;;;;;;;;;;;5095681;28;907;-67
2023/04/09 16:46:48;;;;;;;;;;;;;;;;;;5078788;28;1334;-67
2023/04/09 16:49:13;;;;;;;;;;;;;;;;;;5095810;28;856;-67
2023/04/09 16:51:38;;;;;;;;;;;;;;;;;;5113569;28;1902;-67
2023/04/09 16:54:04;;;;;;;;;;;;;;;;;;5095356;28;1190;-68
2023/04/09 16:56:29;;;;;;;;;;;;;;;;;;5090523;28;1108;-67
2023/04/09 16:58:55;;;;;;;;;;;;;;;;;;5091373;28;1124;-67
2023/04/09 17:01:20;;;;;;;;;;;;;;;;;;5092839;28;805;-67
2023/04/09 17:03:49;;;;;;;;;;;;;;;;;;5074437;28;916;-67